West Olive, MI (49460)

7:13 PM EST on February 05, 2016 (GMT -0500)
Stanton St. & 96th Ave. | | Change Station
CLOSE
Current Station
Personal Weather Station
Location: Zeeland, MI
Elevation: 636 ft
Nearby Weather Stations

Elev 636 ft 42.94 °N, 86.03 °W | Updated 6 minutes ago

Mostly Cloudy
Mostly Cloudy
25.2 °F
Feels Like 25 °F
N
0.0
Wind Variable Wind from WSW

Today
High -- | Low -- °F
--% Chance of Precip.
Yesterday
High -- | Low -- °F
Precip. -- in
Pressure 30.38 in
Visibility 10.0 miles
Clouds Mostly Cloudy 2600 ft
Windchill 25 °F
Dew Point 21 °F
Humidity 85%
Rainfall 0.00 in
Snow Depth Not available.
7:55 AM 6:02 PM
Waning Crescent, 8% visible
METAR KBIV 052353Z AUTO 27003KT 10SM BKN026 M02/M07 A3035 RMK AO2 SLP286 60000 T10221067 10000 21022 52011
Pressure 30.38 in
Visibility 10.0 miles
Clouds Mostly Cloudy 2600 ft
Windchill 25 °F
Dew Point 21 °F
Humidity 85%
Rainfall 0.00 in
Snow Depth Not available.
7:55 AM 6:02 PM
Waning Crescent, 8% visible
METAR KBIV 052353Z AUTO 27003KT 10SM BKN026 M02/M07 A3035 RMK AO2 SLP286 60000 T10221067 10000 21022 52011

10-Day Weather Forecast

Almanac

Astronomy

Feb. 05, 2016 Rise Set
Actual Time
Civil Twilight
Nautical Twilight
Astronomical Twilight
Moon
Length of Visible Light
Length of Day
Tomorrow will be .
, % of the Moon is Illuminated

Today's Extremes

State Highs State Lows

Community

WunderPhotos

Upload Photos

1,890,893 photos uploaded!

WunderBlog® & News

Nearby

Air Quality

  Air Quality AQ Index Pollutant
Not available.

Snow Depth

Station Depth Elevation

Earthquake Activity

City Distance Mag. Time & Date
Minimum magnitude displayed is 2.5.

Coastal Water Temperatures

Place Temperature

Stations

Nearby Weather Stations

Station Location Temp. Windchill Dew Point Humidity Wind Precip. Elev Updated Type
                   

Watches & Warnings

There are currently no watches in effect.